Time;durP1;ratioP1;P1;durP2;ratioP2;P2;SDS_P1;SDS_P2;PMS_P1;PMS_P2;Temp;Humidity;BMP_temperature;BMP_pressure;BME280_temperature;BME280_humidity;BME280_pressure;Samples;Min_cycle;Max_cycle;Signal;HPM_P1;HPM_P2
2024/01/24 00:01:49;;;;;;;0.20;0.20;;;;;;;;;;6198750;28;20023;-88
2024/01/24 00:04:49;;;;;;;0.30;0.30;;;;;;;;;;6209345;28;20026;-89
2024/01/24 00:07:50;;;;;;;0.20;0.20;;;;;;;;;;6217884;28;20481;-88
2024/01/24 00:10:50;;;;;;;0.20;0.20;;;;;;;;;;6216438;28;20033;-88
2024/01/24 00:13:50;;;;;;;0.20;0.20;;;;;;;;;;6218008;28;20145;-87
2024/01/24 00:16:51;;;;;;;0.20;0.20;;;;;;;;;;6218118;28;20029;-88
2024/01/24 00:19:51;;;;;;;0.30;0.30;;;;;;;;;;6217796;28;20459;-88
2024/01/24 00:22:52;;;;;;;0.20;0.20;;;;;;;;;;6199650;28;20049;-87
2024/01/24 00:25:52;;;;;;;0.20;0.20;;;;;;;;;;6217430;28;20018;-88
2024/01/24 00:28:54;;;;;;;0.20;0.20;;;;;;;;;;6217141;28;20061;-88
2024/01/24 00:31:55;;;;;;;0.20;0.20;;;;;;;;;;6217095;28;20034;-86
2024/01/24 00:34:55;;;;;;;0.20;0.20;;;;;;;;;;6217154;28;20552;-87
2024/01/24 00:37:55;;;;;;;0.30;0.30;;;;;;;;;;6218161;28;20030;-86
2024/01/24 00:40:56;;;;;;;0.20;0.20;;;;;;;;;;6217743;28;20018;-86
2024/01/24 00:43:56;;;;;;;0.20;0.20;;;;;;;;;;6217362;28;20029;-86
2024/01/24 00:46:56;;;;;;;0.20;0.20;;;;;;;;;;6203705;28;20579;-87
2024/01/24 00:49:57;;;;;;;0.20;0.20;;;;;;;;;;6241826;28;20100;-86
2024/01/24 00:53:00;;;;;;;0.20;0.20;;;;;;;;;;6242184;28;20025;-86
2024/01/24 00:56:00;;;;;;;0.20;0.20;;;;;;;;;;6242435;28;20035;-86
2024/01/24 00:59:02;;;;;;;0.20;0.20;;;;;;;;;;6245941;28;20034;-86
2024/01/24 01:02:02;;;;;;;0.20;0.20;;;;;;;;;;6260124;28;20072;-86
2024/01/24 01:05:04;;;;;;;0.20;0.20;;;;;;;;;;6218979;28;20825;-86
2024/01/24 01:08:05;;;;;;;0.20;0.20;;;;;;;;;;6247205;28;20017;-86
2024/01/24 01:11:06;;;;;;;0.20;0.20;;;;;;;;;;6248773;28;20436;-86
2024/01/24 01:14:06;;;;;;;0.20;0.20;;;;;;;;;;6239110;28;20029;-86
2024/01/24 01:17:06;;;;;;;0.20;0.20;;;;;;;;;;6245123;28;20018;-85
2024/01/24 01:20:09;;;;;;;0.20;0.20;;;;;;;;;;6245940;28;20020;-86
2024/01/24 01:23:10;;;;;;;0.20;0.20;;;;;;;;;;6227738;28;20115;-85
2024/01/24 01:26:11;;;;;;;0.20;0.20;;;;;;;;;;6228205;28;20053;-86
2024/01/24 01:29:11;;;;;;;0.20;0.20;;;;;;;;;;6246345;28;20028;-85
2024/01/24 01:32:11;;;;;;;0.20;0.20;;;;;;;;;;6246114;28;20511;-85
2024/01/24 01:35:11;;;;;;;0.20;0.20;;;;;;;;;;6245536;28;20104;-85
2024/01/24 01:38:13;;;;;;;0.20;0.20;;;;;;;;;;6245887;28;20567;-85
2024/01/24 01:41:13;;;;;;;0.20;0.20;;;;;;;;;;6246555;28;20024;-84
2024/01/24 01:44:15;;;;;;;0.20;0.20;;;;;;;;;;6245117;28;20021;-85
2024/01/24 01:47:16;;;;;;;0.20;0.20;;;;;;;;;;6246792;28;20129;-84
2024/01/24 01:50:16;;;;;;;0.20;0.20;;;;;;;;;;6223396;28;20476;-84
2024/01/24 01:53:18;;;;;;;0.20;0.20;;;;;;;;;;6244535;28;20518;-84
2024/01/24 01:56:19;;;;;;;0.20;0.20;;;;;;;;;;6230852;28;20133;-84
2024/01/24 01:59:20;;;;;;;0.30;0.30;;;;;;;;;;6244961;28;20030;-84
2024/01/24 02:02:20;;;;;;;0.20;0.20;;;;;;;;;;6244896;28;20490;-84
2024/01/24 02:05:20;;;;;;;0.20;0.20;;;;;;;;;;6224389;28;20465;-83
2024/01/24 02:08:21;;;;;;;0.20;0.20;;;;;;;;;;6241177;28;20044;-84
2024/01/24 02:11:21;;;;;;;0.20;0.20;;;;;;;;;;6244067;28;20014;-83
2024/01/24 02:14:21;;;;;;;0.20;0.20;;;;;;;;;;6242129;28;20049;-83
2024/01/24 02:17:21;;;;;;;0.23;0.23;;;;;;;;;;6244076;28;20472;-81
2024/01/24 02:20:22;;;;;;;0.20;0.20;;;;;;;;;;6226099;28;20013;-81
2024/01/24 02:23:24;;;;;;;0.30;0.30;;;;;;;;;;6244377;28;20498;-81
2024/01/24 02:26:24;;;;;;;0.20;0.20;;;;;;;;;;6244185;28;20021;-83
2024/01/24 02:29:24;;;;;;;0.20;0.20;;;;;;;;;;6243755;28;20079;-83
2024/01/24 02:32:25;;;;;;;0.20;0.20;;;;;;;;;;6223333;28;20070;-83
2024/01/24 02:35:27;;;;;;;0.20;0.20;;;;;;;;;;6243802;28;20480;-83
2024/01/24 02:38:27;;;;;;;0.20;0.20;;;;;;;;;;6243323;28;20030;-82
2024/01/24 02:41:28;;;;;;;0.20;0.20;;;;;;;;;;6243507;28;20044;-82
2024/01/24 02:44:28;;;;;;;0.20;0.20;;;;;;;;;;6243838;28;20014;-82
2024/01/24 02:47:28;;;;;;;0.20;0.20;;;;;;;;;;6243340;28;20049;-83
2024/01/24 02:50:29;;;;;;;0.20;0.20;;;;;;;;;;6253495;28;20422;-82
2024/01/24 02:53:29;;;;;;;0.20;0.20;;;;;;;;;;6247486;28;20056;-82
2024/01/24 02:56:29;;;;;;;0.20;0.20;;;;;;;;;;6242702;28;20067;-82
2024/01/24 02:59:30;;;;;;;0.20;0.20;;;;;;;;;;6224841;28;20045;-82
2024/01/24 03:02:30;;;;;;;0.20;0.20;;;;;;;;;;6243341;28;20484;-82
2024/01/24 03:05:30;;;;;;;0.20;0.20;;;;;;;;;;6242856;28;20017;-82
2024/01/24 03:08:45;;;;;;;0.20;0.20;;;;;;;;;;6243146;28;20428;-82
2024/01/24 03:11:45;;;;;;;0.20;0.20;;;;;;;;;;6242386;28;20026;-81
2024/01/24 03:14:45;;;;;;;0.20;0.20;;;;;;;;;;6225373;28;20089;-81
2024/01/24 03:17:46;;;;;;;0.20;0.20;;;;;;;;;;6242697;28;20025;-85
2024/01/24 03:20:46;;;;;;;0.20;0.20;;;;;;;;;;6224527;28;20047;-84
2024/01/24 03:23:46;;;;;;;0.20;0.20;;;;;;;;;;6242707;28;20096;-85
2024/01/24 03:26:47;;;;;;;0.20;0.20;;;;;;;;;;6221401;28;20013;-84
2024/01/24 03:29:48;;;;;;;0.20;0.20;;;;;;;;;;6243141;28;20056;-84
2024/01/24 03:32:48;;;;;;;0.20;0.20;;;;;;;;;;6224843;28;20017;-84
2024/01/24 03:35:48;;;;;;;0.20;0.20;;;;;;;;;;6243112;28;20076;-84
2024/01/24 03:38:48;;;;;;;0.20;0.20;;;;;;;;;;6242594;28;20108;-84
2024/01/24 03:41:49;;;;;;;0.20;0.20;;;;;;;;;;6242450;28;20064;-84
2024/01/24 03:44:49;;;;;;;0.20;0.20;;;;;;;;;;6242188;28;20104;-83
2024/01/24 03:47:49;;;;;;;0.20;0.20;;;;;;;;;;6212284;28;20045;-82
2024/01/24 03:50:49;;;;;;;0.20;0.20;;;;;;;;;;6199908;28;20053;-83
2024/01/24 03:53:49;;;;;;;0.20;0.20;;;;;;;;;;6199894;28;20114;-83
2024/01/24 03:56:50;;;;;;;0.20;0.20;;;;;;;;;;6218584;28;20526;-84
2024/01/24 03:59:50;;;;;;;0.20;0.20;;;;;;;;;;6216371;28;20033;-83
2024/01/24 04:02:51;;;;;;;0.20;0.20;;;;;;;;;;6217660;28;20014;-83
2024/01/24 04:05:51;;;;;;;0.20;0.20;;;;;;;;;;6217673;28;20499;-83
2024/01/24 04:08:52;;;;;;;0.20;0.20;;;;;;;;;;6217119;28;20029;-83
2024/01/24 04:11:52;;;;;;;0.20;0.20;;;;;;;;;;6218191;28;20080;-82
2024/01/24 04:14:53;;;;;;;0.20;0.20;;;;;;;;;;6217002;28;20030;-83
2024/01/24 04:17:53;;;;;;;0.20;0.20;;;;;;;;;;6218006;28;20021;-83
2024/01/24 04:20:53;;;;;;;0.20;0.20;;;;;;;;;;6208749;28;20027;-82
2024/01/24 04:23:53;;;;;;;0.20;0.20;;;;;;;;;;6216376;28;20021;-82
2024/01/24 04:26:54;;;;;;;0.20;0.20;;;;;;;;;;6217348;28;20038;-83
2024/01/24 04:29:54;;;;;;;0.20;0.20;;;;;;;;;;6217679;28;20096;-82
2024/01/24 04:32:54;;;;;;;0.20;0.20;;;;;;;;;;6219789;28;20018;-82
2024/01/24 04:35:57;;;;;;;0.20;0.20;;;;;;;;;;6222524;28;20030;-82
2024/01/24 04:38:57;;;;;;;0.20;0.20;;;;;;;;;;6221689;28;20025;-82
2024/01/24 04:41:59;;;;;;;0.20;0.20;;;;;;;;;;6222168;28;20439;-82
2024/01/24 04:44:59;;;;;;;0.20;0.20;;;;;;;;;;6222307;28;20092;-80
2024/01/24 04:47:59;;;;;;;0.20;0.20;;;;;;;;;;6210692;28;20140;-81
2024/01/24 04:50:59;;;;;;;0.20;0.20;;;;;;;;;;6221772;28;20120;-80
2024/01/24 04:54:00;;;;;;;0.10;0.10;;;;;;;;;;6220900;28;20084;-81
2024/01/24 04:57:01;;;;;;;0.20;0.20;;;;;;;;;;6221804;28;20026;-80
2024/01/24 05:00:02;;;;;;;0.20;0.20;;;;;;;;;;6221264;28;20480;-81
2024/01/24 05:03:02;;;;;;;0.20;0.20;;;;;;;;;;6221564;28;20018;-80
2024/01/24 05:06:03;;;;;;;0.20;0.20;;;;;;;;;;6220780;28;20022;-80
2024/01/24 05:09:04;;;;;;;0.20;0.20;;;;;;;;;;6219821;28;20026;-80
2024/01/24 05:12:04;;;;;;;0.20;0.20;;;;;;;;;;6221990;28;20568;-80
2024/01/24 05:15:07;;;;;;;0.10;0.10;;;;;;;;;;6230681;28;20025;-79
2024/01/24 05:18:07;;;;;;;0.20;0.20;;;;;;;;;;6211921;28;20049;-79
2024/01/24 05:21:07;;;;;;;0.20;0.20;;;;;;;;;;6210959;28;20084;-80
2024/01/24 05:24:08;;;;;;;0.10;0.10;;;;;;;;;;6219837;28;20374;-79
2024/01/24 05:27:09;;;;;;;0.20;0.20;;;;;;;;;;6199705;28;20014;-79
2024/01/24 05:30:09;;;;;;;0.20;0.20;;;;;;;;;;6218393;28;20048;-78
2024/01/24 05:33:12;;;;;;;0.20;0.20;;;;;;;;;;6214610;28;20243;-78
2024/01/24 05:36:14;;;;;;;0.20;0.20;;;;;;;;;;6221685;28;20030;-76
2024/01/24 05:39:15;;;;;;;0.20;0.20;;;;;;;;;;6192081;28;20105;-76
2024/01/24 05:42:15;;;;;;;0.20;0.20;;;;;;;;;;6216640;28;20241;-75
2024/01/24 05:45:16;;;;;;;0.20;0.20;;;;;;;;;;6219743;28;20013;-75
2024/01/24 05:48:16;;;;;;;0.20;0.20;;;;;;;;;;6239079;28;20042;-76
2024/01/24 05:51:16;;;;;;;0.20;0.20;;;;;;;;;;6240863;28;20514;-76
2024/01/24 05:54:16;;;;;;;0.20;0.20;;;;;;;;;;6226591;28;20017;-75
2024/01/24 05:57:17;;;;;;;0.20;0.20;;;;;;;;;;6224150;28;20030;-80
2024/01/24 06:00:17;;;;;;;0.20;0.20;;;;;;;;;;6248044;28;20018;-80
2024/01/24 06:03:17;;;;;;;0.20;0.20;;;;;;;;;;6256569;28;20017;-81
2024/01/24 06:06:18;;;;;;;0.20;0.20;;;;;;;;;;6224277;28;20550;-81
2024/01/24 06:09:20;;;;;;;0.20;0.20;;;;;;;;;;6240779;28;20107;-80
2024/01/24 06:12:20;;;;;;;0.20;0.20;;;;;;;;;;6237923;28;20029;-82
2024/01/24 06:15:21;;;;;;;0.20;0.20;;;;;;;;;;6235250;28;20033;-79
2024/01/24 06:18:21;;;;;;;0.20;0.20;;;;;;;;;;6234603;28;20029;-83
2024/01/24 06:21:22;;;;;;;0.20;0.20;;;;;;;;;;6235289;28;20028;-83
2024/01/24 06:24:22;;;;;;;0.20;0.20;;;;;;;;;;6244700;28;20032;-84
2024/01/24 06:27:22;;;;;;;0.20;0.20;;;;;;;;;;6237943;28;20013;-83
2024/01/24 06:30:23;;;;;;;0.20;0.20;;;;;;;;;;6237300;28;20021;-82
2024/01/24 06:33:24;;;;;;;0.20;0.20;;;;;;;;;;6234648;28;20026;-83
2024/01/24 06:36:25;;;;;;;0.20;0.20;;;;;;;;;;6237823;28;20034;-85
2024/01/24 06:39:26;;;;;;;0.20;0.20;;;;;;;;;;6242246;28;20279;-83
2024/01/24 06:42:26;;;;;;;0.20;0.20;;;;;;;;;;6244660;28;20045;-82
2024/01/24 06:45:26;;;;;;;0.20;0.20;;;;;;;;;;6240703;28;20060;-74
2024/01/24 06:48:26;;;;;;;0.20;0.20;;;;;;;;;;6206018;28;20516;-74
2024/01/24 06:51:27;;;;;;;0.20;0.20;;;;;;;;;;6199285;28;20460;-75
2024/01/24 06:54:27;;;;;;;0.20;0.20;;;;;;;;;;6212955;28;20030;-76
2024/01/24 06:57:27;;;;;;;0.20;0.20;;;;;;;;;;6213269;28;20026;-76
2024/01/24 07:00:29;;;;;;;0.20;0.20;;;;;;;;;;6201122;28;20105;-76
2024/01/24 07:03:30;;;;;;;0.20;0.20;;;;;;;;;;6217940;28;20773;-77
2024/01/24 07:06:30;;;;;;;0.20;0.20;;;;;;;;;;6199296;28;20116;-82
2024/01/24 07:09:30;;;;;;;0.20;0.20;;;;;;;;;;6213668;28;20022;-82
2024/01/24 07:12:30;;;;;;;0.20;0.20;;;;;;;;;;6205460;28;20018;-83
2024/01/24 07:15:31;;;;;;;0.20;0.20;;;;;;;;;;6200625;28;20028;-85
2024/01/24 07:18:33;;;;;;;0.20;0.20;;;;;;;;;;6221357;28;20018;-86
2024/01/24 07:21:34;;;;;;;0.20;0.20;;;;;;;;;;6204433;28;20085;-85
2024/01/24 07:24:34;;;;;;;0.20;0.20;;;;;;;;;;6221613;28;20038;-86
2024/01/24 07:27:35;;;;;;;0.20;0.20;;;;;;;;;;6202519;28;20026;-85
2024/01/24 07:30:35;;;;;;;0.20;0.20;;;;;;;;;;6220039;28;20021;-85
2024/01/24 07:33:38;;;;;;;0.20;0.20;;;;;;;;;;6222515;28;20133;-85
2024/01/24 07:36:38;;;;;;;0.20;0.20;;;;;;;;;;6213375;28;20543;-86
2024/01/24 07:39:38;;;;;;;0.20;0.20;;;;;;;;;;6220628;28;20036;-86
2024/01/24 07:42:38;;;;;;;0.20;0.20;;;;;;;;;;6214208;28;20022;-88
2024/01/24 07:45:38;;;;;;;0.20;0.20;;;;;;;;;;6213434;28;20022;-85
2024/01/24 07:48:39;;;;;;;0.20;0.20;;;;;;;;;;6236658;28;20045;-88
2024/01/24 07:51:41;;;;;;;0.20;0.20;;;;;;;;;;6240157;28;20050;-86
2024/01/24 07:54:41;;;;;;;0.20;0.20;;;;;;;;;;6239756;28;20014;-86
2024/01/24 07:57:43;;;;;;;0.20;0.20;;;;;;;;;;6238649;28;20021;-87
2024/01/24 08:00:43;;;;;;;0.20;0.20;;;;;;;;;;6237099;28;20013;-85
2024/01/24 08:03:44;;;;;;;0.20;0.20;;;;;;;;;;6226497;28;20258;-86
2024/01/24 08:06:45;;;;;;;0.20;0.20;;;;;;;;;;6218749;28;20073;-85
2024/01/24 08:09:46;;;;;;;0.20;0.20;;;;;;;;;;6237252;28;20054;-86
2024/01/24 08:12:46;;;;;;;0.20;0.20;;;;;;;;;;6242765;28;20043;-87
2024/01/24 08:15:46;;;;;;;0.20;0.20;;;;;;;;;;6229639;28;20472;-75
2024/01/24 08:18:48;;;;;;;0.20;0.20;;;;;;;;;;6238892;28;20017;-76
2024/01/24 08:21:48;;;;;;;0.20;0.20;;;;;;;;;;6245938;28;20017;-76
2024/01/24 08:24:48;;;;;;;0.20;0.20;;;;;;;;;;6237793;28;20083;-76
2024/01/24 08:27:48;;;;;;;0.20;0.20;;;;;;;;;;6251155;28;20165;-76
2024/01/24 08:30:48;;;;;;;0.20;0.20;;;;;;;;;;6246571;28;20018;-76
2024/01/24 08:33:49;;;;;;;0.20;0.20;;;;;;;;;;6228725;28;20025;-76
2024/01/24 08:36:49;;;;;;;0.20;0.20;;;;;;;;;;6227057;28;20403;-75
2024/01/24 08:39:50;;;;;;;0.20;0.20;;;;;;;;;;6253623;28;20100;-75
2024/01/24 08:42:50;;;;;;;0.20;0.20;;;;;;;;;;6255406;28;20016;-75
2024/01/24 08:45:50;;;;;;;0.20;0.20;;;;;;;;;;6212912;28;20087;-75
2024/01/24 08:48:51;;;;;;;0.20;0.20;;;;;;;;;;6241564;28;20120;-75
2024/01/24 08:51:51;;;;;;;0.20;0.20;;;;;;;;;;6246400;28;20025;-75
2024/01/24 08:54:52;;;;;;;0.20;0.20;;;;;;;;;;6242484;28;20018;-75
2024/01/24 08:57:52;;;;;;;0.20;0.20;;;;;;;;;;6231217;28;20025;-76
2024/01/24 09:00:52;;;;;;;0.20;0.20;;;;;;;;;;6248010;28;20014;-76
2024/01/24 09:03:53;;;;;;;0.20;0.20;;;;;;;;;;6246318;28;20028;-75
2024/01/24 09:06:53;;;;;;;0.20;0.20;;;;;;;;;;6212450;28;20031;-90
2024/01/24 09:09:54;;;;;;;0.20;0.20;;;;;;;;;;6255053;28;20164;-90
2024/01/24 09:12:54;;;;;;;0.20;0.20;;;;;;;;;;6236842;28;20472;-90
2024/01/24 09:15:54;;;;;;;0.20;0.20;;;;;;;;;;6232181;28;20025;-89
2024/01/24 09:18:55;;;;;;;0.20;0.20;;;;;;;;;;6240051;28;20025;-86
2024/01/24 09:21:55;;;;;;;0.20;0.20;;;;;;;;;;6246069;28;20024;-83
2024/01/24 09:24:56;;;;;;;0.20;0.20;;;;;;;;;;6228196;28;20013;-87
2024/01/24 09:27:56;;;;;;;0.20;0.20;;;;;;;;;;6222503;28;20514;-75
2024/01/24 09:30:56;;;;;;;0.20;0.20;;;;;;;;;;6237767;28;20013;-76
2024/01/24 09:33:56;;;;;;;0.20;0.20;;;;;;;;;;6238853;28;20022;-77
2024/01/24 09:36:57;;;;;;;0.20;0.20;;;;;;;;;;6239701;28;20025;-76
2024/01/24 09:39:57;;;;;;;0.20;0.20;;;;;;;;;;6236474;28;20051;-78
2024/01/24 09:43:00;;;;;;;0.20;0.20;;;;;;;;;;6255627;28;20024;-77
2024/01/24 09:46:02;;;;;;;0.20;0.20;;;;;;;;;;6222961;28;20407;-76
2024/01/24 09:49:02;;;;;;;0.20;0.20;;;;;;;;;;6234922;28;20046;-76
2024/01/24 09:52:03;;;;;;;0.20;0.20;;;;;;;;;;6243429;28;20040;-77
2024/01/24 09:55:04;;;;;;;0.20;0.20;;;;;;;;;;6237510;28;20029;-78
2024/01/24 09:58:04;;;;;;;0.20;0.20;;;;;;;;;;6222566;28;20079;-77
2024/01/24 10:01:08;;;;;;;0.20;0.20;;;;;;;;;;6236956;28;20018;-77
2024/01/24 10:04:10;;;;;;;0.20;0.20;;;;;;;;;;6224405;28;20025;-77
2024/01/24 10:07:10;;;;;;;0.10;0.10;;;;;;;;;;6233296;28;20107;-77
2024/01/24 10:10:15;;;;;;;0.20;0.20;;;;;;;;;;6222968;28;20022;-77
2024/01/24 10:13:15;;;;;;;0.20;0.20;;;;;;;;;;6214421;28;20026;-75
2024/01/24 10:16:15;;;;;;;0.20;0.20;;;;;;;;;;6231052;28;20472;-81
2024/01/24 10:19:17;;;;;;;0.20;0.20;;;;;;;;;;6234909;28;20028;-82
2024/01/24 10:22:19;;;;;;;0.20;0.20;;;;;;;;;;6241309;28;20531;-81
2024/01/24 10:25:19;;;;;;;0.20;0.20;;;;;;;;;;6243322;28;20075;-81
2024/01/24 10:28:19;;;;;;;0.20;0.20;;;;;;;;;;6225933;28;20033;-82
2024/01/24 10:31:20;;;;;;;0.20;0.20;;;;;;;;;;6243063;28;20384;-85
2024/01/24 10:34:21;;;;;;;0.20;0.20;;;;;;;;;;6237064;28;20033;-84
2024/01/24 10:37:22;;;;;;;0.20;0.20;;;;;;;;;;6237473;28;20468;-78
2024/01/24 10:40:22;;;;;;;0.20;0.20;;;;;;;;;;6242040;28;20017;-78
2024/01/24 10:43:23;;;;;;;0.20;0.20;;;;;;;;;;6256728;28;20079;-75
2024/01/24 10:46:25;;;;;;;0.20;0.20;;;;;;;;;;6246421;28;20120;-76
2024/01/24 10:49:27;;;;;;;0.20;0.20;;;;;;;;;;6249964;28;20040;-75
2024/01/24 10:52:27;;;;;;;0.20;0.20;;;;;;;;;;6225669;28;20033;-75
2024/01/24 10:55:29;;;;;;;0.20;0.20;;;;;;;;;;6243944;28;20025;-75
2024/01/24 10:58:29;;;;;;;;;;;;;;;;;;6224806;28;20092;-74
2024/01/24 11:01:30;;;;;;;0.20;0.20;;;;;;;;;;6242671;28;19920;-75
2024/01/24 11:04:30;;;;;;;0.20;0.20;;;;;;;;;;6242888;28;20077;-74
2024/01/24 11:07:34;;;;;;;0.20;0.20;;;;;;;;;;6235310;28;20020;-74
2024/01/24 11:10:36;;;;;;;0.20;0.20;;;;;;;;;;6234880;28;20559;-74
2024/01/24 11:13:37;;;;;;;0.20;0.20;;;;;;;;;;6214123;28;20057;-74
2024/01/24 11:16:39;;;;;;;0.20;0.20;;;;;;;;;;6236027;28;20100;-74
2024/01/24 11:19:39;;;;;;;0.20;0.20;;;;;;;;;;6230228;28;20037;-74
2024/01/24 11:22:40;;;;;;;0.20;0.20;;;;;;;;;;6241419;28;20021;-74
2024/01/24 11:25:40;;;;;;;0.20;0.20;;;;;;;;;;6236482;28;20491;-74
2024/01/24 11:28:40;;;;;;;0.10;0.10;;;;;;;;;;6234946;28;20032;-74
2024/01/24 11:31:41;;;;;;;0.10;0.10;;;;;;;;;;6241888;28;20025;-74
2024/01/24 11:34:43;;;;;;;0.20;0.20;;;;;;;;;;6232143;28;20018;-74
2024/01/24 11:37:43;;;;;;;0.10;0.10;;;;;;;;;;6225375;28;20057;-74
2024/01/24 11:40:43;;;;;;;0.10;0.10;;;;;;;;;;6233368;28;20467;-75
2024/01/24 11:43:44;;;;;;;0.10;0.10;;;;;;;;;;6238502;28;20542;-75
2024/01/24 11:46:44;;;;;;;0.10;0.10;;;;;;;;;;6247639;28;20053;-76
2024/01/24 11:49:48;;;;;;;0.10;0.10;;;;;;;;;;6237369;28;20022;-75
2024/01/24 11:52:49;;;;;;;0.10;0.10;;;;;;;;;;6239882;28;20120;-76
2024/01/24 11:56:04;;;;;;;0.10;0.10;;;;;;;;;;6241050;28;20476;-75
2024/01/24 11:59:04;;;;;;;0.10;0.10;;;;;;;;;;6241808;28;20029;-76
2024/01/24 12:02:05;;;;;;;0.10;0.10;;;;;;;;;;6223300;28;20026;-76
2024/01/24 12:05:05;;;;;;;0.10;0.10;;;;;;;;;;6224242;28;20021;-75
2024/01/24 12:08:06;;;;;;;0.10;0.10;;;;;;;;;;6242730;28;20482;-76
2024/01/24 12:11:07;;;;;;;0.15;0.15;;;;;;;;;;6223914;28;20369;-77
2024/01/24 12:14:07;;;;;;;0.10;0.10;;;;;;;;;;6241471;28;20030;-77
2024/01/24 12:17:08;;;;;;;0.10;0.10;;;;;;;;;;6223400;28;20508;-78
2024/01/24 12:20:08;;;;;;;0.10;0.10;;;;;;;;;;6242365;28;20017;-78
2024/01/24 12:23:09;;;;;;;0.10;0.10;;;;;;;;;;6237152;28;20436;-78
2024/01/24 12:26:09;;;;;;;0.10;0.10;;;;;;;;;;6239187;28;20527;-78
2024/01/24 12:29:09;;;;;;;0.10;0.10;;;;;;;;;;6238014;28;20049;-78
2024/01/24 12:32:10;;;;;;;0.10;0.10;;;;;;;;;;6237957;28;20084;-78
2024/01/24 12:35:11;;;;;;;0.10;0.10;;;;;;;;;;6241441;28;20025;-80
2024/01/24 12:38:12;;;;;;;0.10;0.10;;;;;;;;;;6230288;28;20045;-79
2024/01/24 12:41:12;;;;;;;0.10;0.10;;;;;;;;;;6241253;28;20096;-79
2024/01/24 12:44:12;;;;;;;0.10;0.10;;;;;;;;;;6229572;28;20025;-79
2024/01/24 12:47:12;;;;;;;0.10;0.10;;;;;;;;;;6224697;28;20057;-79
2024/01/24 12:50:13;;;;;;;0.13;0.13;;;;;;;;;;6232610;28;20026;-79
2024/01/24 12:53:13;;;;;;;0.10;0.10;;;;;;;;;;6237811;28;20057;-79
2024/01/24 12:56:15;;;;;;;0.10;0.10;;;;;;;;;;6243533;28;20021;-79
2024/01/24 12:59:16;;;;;;;0.10;0.10;;;;;;;;;;6236469;28;20088;-79
2024/01/24 13:02:18;;;;;;;0.10;0.10;;;;;;;;;;6242285;28;20470;-80
2024/01/24 13:05:19;;;;;;;0.10;0.10;;;;;;;;;;6242637;28;20022;-80
2024/01/24 13:08:20;;;;;;;0.10;0.10;;;;;;;;;;6230611;28;20569;-80
2024/01/24 13:11:20;;;;;;;0.10;0.10;;;;;;;;;;6232433;28;20472;-79
2024/01/24 13:14:23;;;;;;;0.13;0.13;;;;;;;;;;6243735;28;20033;-79
2024/01/24 13:17:23;;;;;;;0.10;0.10;;;;;;;;;;6243694;28;20391;-79
2024/01/24 13:20:23;;;;;;;0.10;0.10;;;;;;;;;;6244384;28;20105;-79
2024/01/24 13:23:24;;;;;;;0.10;0.10;;;;;;;;;;6240627;28;20368;-79
2024/01/24 13:26:24;;;;;;;0.10;0.10;;;;;;;;;;6233846;28;20484;-79
2024/01/24 13:29:24;;;;;;;0.10;0.10;;;;;;;;;;6242952;28;20113;-79
2024/01/24 13:32:25;;;;;;;0.10;0.10;;;;;;;;;;6245358;28;20028;-79
2024/01/24 13:35:25;;;;;;;0.10;0.10;;;;;;;;;;6221002;28;20034;-80
2024/01/24 13:38:28;;;;;;;0.10;0.10;;;;;;;;;;6223451;28;20108;-79
2024/01/24 13:41:28;;;;;;;0.10;0.10;;;;;;;;;;6245740;28;20537;-80
2024/01/24 13:44:30;;;;;;;0.10;0.10;;;;;;;;;;6242652;28;20025;-81
2024/01/24 13:47:30;;;;;;;0.10;0.10;;;;;;;;;;6223544;28;20053;-77
2024/01/24 13:50:34;;;;;;;0.10;0.10;;;;;;;;;;6236540;28;20036;-78
2024/01/24 13:53:34;;;;;;;0.13;0.13;;;;;;;;;;6240423;28;20144;-79
2024/01/24 13:56:35;;;;;;;0.20;0.20;;;;;;;;;;6239904;28;20025;-77
2024/01/24 13:59:35;;;;;;;0.10;0.10;;;;;;;;;;6233695;28;20496;-78
2024/01/24 14:02:35;;;;;;;0.10;0.10;;;;;;;;;;6241644;28;20051;-79
2024/01/24 14:05:37;;;;;;;0.17;0.17;;;;;;;;;;6242168;28;20502;-88
2024/01/24 14:08:37;;;;;;;;;;;;;;;;;;6245676;28;20033;-88
2024/01/24 14:11:40;;;;;;;0.10;0.10;;;;;;;;;;6234811;28;19909;-88
2024/01/24 14:14:40;;;;;;;0.10;0.10;;;;;;;;;;6233616;28;20109;-87
2024/01/24 14:17:41;;;;;;;0.20;0.20;;;;;;;;;;6230613;28;20459;-88
2024/01/24 14:20:41;;;;;;;0.20;0.20;;;;;;;;;;6229753;28;20088;-90
2024/01/24 14:23:42;;;;;;;0.20;0.20;;;;;;;;;;6246783;28;20053;-90
2024/01/24 14:26:43;;;;;;;0.10;0.10;;;;;;;;;;6248452;28;20017;-85
2024/01/24 14:29:43;;;;;;;0.10;0.10;;;;;;;;;;6245021;28;20539;-88
2024/01/24 14:32:44;;;;;;;0.10;0.10;;;;;;;;;;6246593;28;20037;-93
2024/01/24 14:35:44;;;;;;;0.10;0.10;;;;;;;;;;6238779;28;20400;-89
2024/01/24 14:38:44;;;;;;;0.10;0.10;;;;;;;;;;6221435;28;20026;-87
2024/01/24 14:41:45;;;;;;;0.10;0.10;;;;;;;;;;6255649;28;20053;-91
2024/01/24 14:44:46;;;;;;;0.10;0.10;;;;;;;;;;6254081;28;20113;-86
2024/01/24 14:47:47;;;;;;;0.10;0.10;;;;;;;;;;6254167;28;20057;-91
2024/01/24 14:50:47;;;;;;;0.10;0.10;;;;;;;;;;6246952;28;20034;-91
2024/01/24 14:53:47;;;;;;;0.10;0.10;;;;;;;;;;6228796;28;20018;-88
2024/01/24 14:56:48;;;;;;;0.10;0.10;;;;;;;;;;6235545;28;20025;-81
2024/01/24 14:59:48;;;;;;;0.10;0.10;;;;;;;;;;6241036;28;20030;-81
2024/01/24 15:02:49;;;;;;;0.10;0.10;;;;;;;;;;6250960;28;20056;-81
2024/01/24 15:05:49;;;;;;;0.20;0.20;;;;;;;;;;6240453;28;20111;-80
2024/01/24 15:08:50;;;;;;;0.20;0.20;;;;;;;;;;6238844;28;20065;-79
2024/01/24 15:11:52;;;;;;;0.10;0.10;;;;;;;;;;6224399;28;20485;-80
2024/01/24 15:14:52;;;;;;;0.10;0.10;;;;;;;;;;6242640;28;20057;-80
2024/01/24 15:17:53;;;;;;;0.10;0.10;;;;;;;;;;6229576;28;20092;-88
2024/01/24 15:20:55;;;;;;;0.10;0.10;;;;;;;;;;6235598;28;20491;-87
2024/01/24 15:23:55;;;;;;;0.10;0.10;;;;;;;;;;6246278;28;20068;-87
2024/01/24 15:26:57;;;;;;;0.10;0.10;;;;;;;;;;6241778;28;20387;-89
2024/01/24 15:29:58;;;;;;;0.10;0.10;;;;;;;;;;6241111;28;20033;-87
2024/01/24 15:32:58;;;;;;;0.10;0.10;;;;;;;;;;6243777;28;20022;-87
2024/01/24 15:35:58;;;;;;;0.10;0.10;;;;;;;;;;6235618;28;20512;-80
2024/01/24 15:38:59;;;;;;;0.10;0.10;;;;;;;;;;6243081;28;20030;-80
2024/01/24 15:42:08;;;;;;;0.10;0.10;;;;;;;;;;6229746;28;20512;-82
2024/01/24 15:45:08;;;;;;;0.20;0.20;;;;;;;;;;6231336;28;20060;-80
2024/01/24 15:48:09;;;;;;;0.10;0.10;;;;;;;;;;6197992;28;20042;-81
2024/01/24 15:51:09;;;;;;;0.10;0.10;;;;;;;;;;6196439;28;20034;-81
2024/01/24 15:54:09;;;;;;;0.10;0.10;;;;;;;;;;6192805;28;20092;-80
2024/01/24 15:57:10;;;;;;;0.10;0.10;;;;;;;;;;6200542;28;20503;-81
2024/01/24 16:00:10;;;;;;;0.10;0.10;;;;;;;;;;6218894;28;20027;-81
2024/01/24 16:03:11;;;;;;;0.20;0.20;;;;;;;;;;6214151;28;20022;-82
2024/01/24 16:06:11;;;;;;;0.10;0.10;;;;;;;;;;6221580;28;20071;-89
2024/01/24 16:09:11;;;;;;;0.10;0.10;;;;;;;;;;6207934;28;20060;-88
2024/01/24 16:12:12;;;;;;;0.10;0.10;;;;;;;;;;6215533;28;20503;-89
2024/01/24 16:15:12;;;;;;;0.10;0.10;;;;;;;;;;6198797;28;20033;-88
2024/01/24 16:18:13;;;;;;;0.10;0.10;;;;;;;;;;6217647;28;20038;-88
2024/01/24 16:21:14;;;;;;;0.10;0.10;;;;;;;;;;6208639;28;20109;-89
2024/01/24 16:24:18;;;;;;;0.10;0.10;;;;;;;;;;6213041;28;20489;-87
2024/01/24 16:27:18;;;;;;;0.10;0.10;;;;;;;;;;6208521;28;20025;-87
2024/01/24 16:30:19;;;;;;;0.10;0.10;;;;;;;;;;6221852;28;20480;-87
2024/01/24 16:33:19;;;;;;;0.10;0.10;;;;;;;;;;6210542;28;20032;-88
2024/01/24 16:36:19;;;;;;;0.10;0.10;;;;;;;;;;6202905;28;20054;-88
2024/01/24 16:39:20;;;;;;;0.10;0.10;;;;;;;;;;6187776;28;20501;-88
2024/01/24 16:42:20;;;;;;;0.20;0.20;;;;;;;;;;6204197;28;20461;-88
2024/01/24 16:45:20;;;;;;;0.10;0.10;;;;;;;;;;6223324;28;20021;-83
2024/01/24 16:48:21;;;;;;;0.10;0.10;;;;;;;;;;6242336;28;20064;-83
2024/01/24 16:51:22;;;;;;;0.10;0.10;;;;;;;;;;6242548;28;20022;-83
2024/01/24 16:54:22;;;;;;;0.10;0.10;;;;;;;;;;6239671;28;20693;-82
2024/01/24 16:57:22;;;;;;;0.20;0.20;;;;;;;;;;6254130;28;20073;-87
2024/01/24 17:00:22;;;;;;;0.20;0.20;;;;;;;;;;6254011;28;20018;-86
2024/01/24 17:03:23;;;;;;;0.20;0.20;;;;;;;;;;6248622;28;20026;-86
2024/01/24 17:06:23;;;;;;;0.20;0.20;;;;;;;;;;6237186;28;20025;-82
2024/01/24 17:09:24;;;;;;;0.20;0.20;;;;;;;;;;6231251;28;20017;-83
2024/01/24 17:12:25;;;;;;;0.20;0.20;;;;;;;;;;6245416;28;20024;-82
2024/01/24 17:15:27;;;;;;;0.10;0.10;;;;;;;;;;6247098;28;20025;-87
2024/01/24 17:18:27;;;;;;;0.20;0.20;;;;;;;;;;6238733;28;20130;-87
2024/01/24 17:21:27;;;;;;;0.17;0.17;;;;;;;;;;6248605;28;20030;-86
2024/01/24 17:24:27;;;;;;;0.20;0.20;;;;;;;;;;6257977;28;20037;-85
2024/01/24 17:27:28;;;;;;;0.10;0.10;;;;;;;;;;6253654;28;20503;-87
2024/01/24 17:30:31;;;;;;;0.10;0.10;;;;;;;;;;6248539;28;20049;-86
2024/01/24 17:33:31;;;;;;;0.10;0.10;;;;;;;;;;6242837;28;20037;-87
2024/01/24 17:36:32;;;;;;;0.10;0.10;;;;;;;;;;6231754;28;20040;-86
2024/01/24 17:39:32;;;;;;;0.10;0.10;;;;;;;;;;6241337;28;20029;-85
2024/01/24 17:42:34;;;;;;;0.10;0.10;;;;;;;;;;6242844;28;20072;-84
2024/01/24 17:45:35;;;;;;;0.10;0.10;;;;;;;;;;6232269;28;20032;-85
2024/01/24 17:48:37;;;;;;;0.20;0.20;;;;;;;;;;6254071;28;20049;-86
2024/01/24 17:51:37;;;;;;;0.20;0.20;;;;;;;;;;6244956;28;20026;-85
2024/01/24 17:54:39;;;;;;;0.10;0.10;;;;;;;;;;6245116;28;20068;-86
2024/01/24 17:57:40;;;;;;;0.10;0.10;;;;;;;;;;6245485;28;20100;-86
2024/01/24 18:00:40;;;;;;;0.10;0.10;;;;;;;;;;6244404;28;20018;-86
2024/01/24 18:03:40;;;;;;;0.13;0.13;;;;;;;;;;6226840;28;20464;-86